Time;durP1;ratioP1;P1;durP2;ratioP2;P2;SDS_P1;SDS_P2;PMS_P1;PMS_P2;Temp;Humidity;BMP_temperature;BMP_pressure;BME280_temperature;BME280_humidity;BME280_pressure;Samples;Min_cycle;Max_cycle;Signal;HPM_P1;HPM_P2
2023/03/30 00:00:17;;;;;;;10.65;6.35;;;;;;;5.05;100.00;100511.91;6241558;23;20012;-74
2023/03/30 00:02:46;;;;;;;8.40;5.60;;;;;;;5.13;100.00;100514.75;6236740;23;20117;-72
2023/03/30 00:05:12;;;;;;;11.43;5.80;;;;;;;5.12;100.00;100515.75;6240849;23;20044;-74
2023/03/30 00:07:41;;;;;;;12.05;5.78;;;;;;;5.20;100.00;100510.59;6239807;23;20537;-72
2023/03/30 00:10:13;;;;;;;9.95;6.15;;;;;;;5.11;100.00;100508.75;6240437;23;20087;-73
2023/03/30 00:12:42;;;;;;;8.07;5.57;;;;;;;5.11;100.00;100514.06;6240651;23;20127;-72
2023/03/30 00:15:16;;;;;;;8.05;5.18;;;;;;;5.11;100.00;100511.41;6241103;23;20032;-74
2023/03/30 00:17:43;;;;;;;9.90;5.55;;;;;;;5.13;100.00;100501.47;6240600;23;20027;-73
2023/03/30 00:20:12;;;;;;;9.65;5.35;;;;;;;5.06;100.00;100494.97;6241045;23;20052;-74
2023/03/30 00:22:44;;;;;;;10.90;5.55;;;;;;;5.13;100.00;100500.63;6241014;23;20465;-73
2023/03/30 00:25:12;;;;;;;8.05;5.47;;;;;;;5.10;100.00;100496.41;6241152;23;20034;-73
2023/03/30 00:27:39;;;;;;;11.80;5.78;;;;;;;5.06;100.00;100484.34;6239665;22;20483;-73
2023/03/30 00:30:12;;;;;;;10.63;5.68;;;;;;;5.01;100.00;100482.09;6239124;23;20360;-72
2023/03/30 00:32:39;;;;;;;9.70;5.82;;;;;;;5.00;100.00;100477.72;6240471;23;20342;-73
2023/03/30 00:35:06;;;;;;;11.95;5.97;;;;;;;5.03;100.00;100479.28;6241677;23;20028;-74
2023/03/30 00:37:36;;;;;;;9.95;6.05;;;;;;;5.10;100.00;100472.47;6242257;23;20031;-73
2023/03/30 00:40:06;;;;;;;14.40;5.85;;;;;;;5.06;100.00;100473.72;6241710;23;20032;-72
2023/03/30 00:42:36;;;;;;;8.63;5.90;;;;;;;5.00;100.00;100468.91;6241450;23;20047;-73
2023/03/30 00:45:22;;;;;;;10.80;6.10;;;;;;;4.89;100.00;100463.66;6238634;23;20251;-74
2023/03/30 00:48:00;;;;;;;10.65;5.40;;;;;;;4.89;100.00;100461.00;6239178;23;20031;-74
2023/03/30 00:50:52;;;;;;;11.10;6.20;;;;;;;4.78;100.00;100453.94;6241150;23;20027;-72
2023/03/30 00:53:24;;;;;;;8.95;5.95;;;;;;;4.85;100.00;100443.63;6219499;23;20024;-73
2023/03/30 00:55:52;;;;;;;11.10;6.03;;;;;;;4.71;100.00;100434.16;6239718;23;20449;-73
2023/03/30 00:58:21;;;;;;;9.43;5.60;;;;;;;4.82;100.00;100434.94;6239114;23;20026;-73
2023/03/30 01:00:48;;;;;;;9.95;6.40;;;;;;;4.76;100.00;100432.81;6239714;23;20127;-73
2023/03/30 01:03:32;;;;;;;11.90;6.25;;;;;;;4.80;100.00;100420.13;6238823;23;20054;-74
2023/03/30 01:09:40;;;;;;;9.90;6.65;;;;;;;4.93;100.00;100404.78;6238273;23;20019;-72
2023/03/30 01:12:07;;;;;;;13.63;6.68;;;;;;;4.98;100.00;100402.59;6238903;23;20027;-74
2023/03/30 01:14:34;;;;;;;11.23;5.97;;;;;;;5.01;100.00;100396.19;6239531;23;20352;-74
2023/03/30 01:17:25;;;;;;;10.50;5.90;;;;;;;5.14;100.00;100394.13;6238359;23;20031;-73
2023/03/30 01:20:07;;;;;;;9.90;6.03;;;;;;;5.12;100.00;100384.59;6239749;23;20028;-74
2023/03/30 01:22:53;;;;;;;9.55;6.30;;;;;;;5.10;100.00;100376.75;6239396;23;20016;-73
2023/03/30 01:25:55;;;;;;;12.98;6.90;;;;;;;5.32;100.00;100377.53;6238875;23;20020;-74
2023/03/30 01:28:33;;;;;;;10.43;6.45;;;;;;;4.96;100.00;100375.28;6222853;22;20020;-74
2023/03/30 01:31:24;;;;;;;13.63;6.60;;;;;;;4.77;100.00;100375.19;6238419;23;20016;-73
2023/03/30 01:34:18;;;;;;;17.58;6.78;;;;;;;4.64;100.00;100372.72;6237501;23;20028;-74
2023/03/30 01:37:03;;;;;;;12.93;7.32;;;;;;;4.61;100.00;100369.50;6238238;23;20457;-74
2023/03/30 01:39:29;;;;;;;12.75;7.03;;;;;;;4.57;100.00;100366.25;6239504;23;20027;-73
2023/03/30 01:42:08;;;;;;;14.25;7.65;;;;;;;4.56;100.00;100359.28;6240900;23;20020;-74
2023/03/30 01:45:15;;;;;;;13.80;7.07;;;;;;;4.60;100.00;100342.09;6239555;23;20012;-73
2023/03/30 01:47:45;;;;;;;13.95;7.50;;;;;;;4.72;100.00;100332.22;6239717;23;20016;-74
2023/03/30 01:50:19;;;;;;;9.00;6.88;;;;;;;4.69;100.00;100338.63;6238466;23;20089;-74
2023/03/30 01:53:00;;;;;;;14.45;8.10;;;;;;;4.81;100.00;100342.91;6239598;23;20054;-73
2023/03/30 01:55:33;;;;;;;15.80;8.13;;;;;;;4.82;100.00;100333.09;6237609;23;20024;-73
2023/03/30 01:58:10;;;;;;;11.55;7.85;;;;;;;4.69;100.00;100338.63;6237741;23;20024;-73
2023/03/30 02:00:40;;;;;;;16.85;8.85;;;;;;;4.69;100.00;100341.28;6238481;23;20326;-73
2023/03/30 02:03:15;;;;;;;12.82;7.60;;;;;;;4.70;100.00;100345.66;6237926;23;20051;-73
2023/03/30 02:05:45;;;;;;;11.90;7.13;;;;;;;4.71;100.00;100351.78;6240329;23;20409;-73
2023/03/30 02:08:17;;;;;;;11.13;7.38;;;;;;;4.74;100.00;100340.91;6241183;23;20024;-73
2023/03/30 02:10:45;;;;;;;10.10;7.38;;;;;;;4.63;100.00;100336.50;6241433;23;20023;-73
2023/03/30 02:13:12;;;;;;;11.95;7.90;;;;;;;4.63;100.00;100331.19;6213587;23;20103;-73
2023/03/30 02:15:44;;;;;;;13.63;6.85;;;;;;;4.63;100.00;100339.16;6240750;23;20353;-73
2023/03/30 02:18:11;;;;;;;14.23;7.00;;;;;;;4.67;100.00;100337.94;6238756;23;20099;-73
2023/03/30 02:20:37;;;;;;;15.15;7.50;;;;;;;4.66;100.00;100325.63;6238812;23;20103;-74
2023/03/30 02:23:06;;;;;;;11.77;7.07;;;;;;;4.69;100.00;100329.81;6226105;23;20040;-73
2023/03/30 02:25:39;;;;;;;13.35;7.25;;;;;;;4.67;100.00;100319.34;6215845;23;20697;-73
2023/03/30 02:28:07;;;;;;;12.80;7.35;;;;;;;4.68;100.00;100310.38;6240617;22;20016;-71
2023/03/30 02:30:38;;;;;;;17.13;6.93;;;;;;;4.49;100.00;100300.50;6240428;23;20026;-71
2023/03/30 02:33:06;;;;;;;10.48;5.82;;;;;;;4.47;100.00;100298.94;6241805;23;20028;-70
2023/03/30 02:35:55;;;;;;;18.73;7.65;;;;;;;4.58;100.00;100304.16;6241600;23;20099;-71
2023/03/30 02:39:06;;;;;;;9.63;6.90;;;;;;;4.60;100.00;100301.41;6241345;23;20020;-71
2023/03/30 02:42:17;;;;;;;13.85;7.90;;;;;;;4.65;100.00;100289.38;6238794;23;20024;-71
2023/03/30 02:44:59;;;;;;;13.55;7.82;;;;;;;4.73;100.00;100273.63;6083868;23;20101;-71
2023/03/30 02:47:48;;;;;;;15.57;7.35;;;;;;;4.78;100.00;100265.25;6089812;23;20019;-71
2023/03/30 02:50:26;;;;;;;12.52;7.60;;;;;;;4.86;100.00;100275.22;6087910;23;20026;-71
2023/03/30 02:53:09;;;;;;;14.52;7.82;;;;;;;4.86;100.00;100267.22;6088017;23;20025;-71
2023/03/30 02:55:49;;;;;;;11.82;7.28;;;;;;;4.85;100.00;100273.53;6088720;23;20097;-71
2023/03/30 02:58:46;;;;;;;10.00;6.97;;;;;;;4.84;100.00;100263.88;6090406;23;20109;-71
2023/03/30 03:01:24;;;;;;;11.23;6.90;;;;;;;4.82;100.00;100264.84;6090342;23;20522;-74
2023/03/30 03:03:53;;;;;;;11.60;7.45;;;;;;;4.61;100.00;100260.56;6090367;23;20029;-73
2023/03/30 03:06:20;;;;;;;14.13;7.22;;;;;;;4.62;100.00;100257.75;6089872;23;20026;-73
2023/03/30 03:08:48;;;;;;;14.38;7.75;;;;;;;4.50;100.00;100249.06;6089307;23;20022;-73
2023/03/30 03:11:15;;;;;;;17.00;8.48;;;;;;;4.54;100.00;100239.00;6090761;23;20034;-73
2023/03/30 03:13:41;;;;;;;11.60;6.97;;;;;;;4.53;100.00;100245.28;6090661;23;20097;-73
2023/03/30 03:16:10;;;;;;;15.20;7.60;;;;;;;4.62;100.00;100235.66;6090396;23;20026;-74
2023/03/30 03:18:38;;;;;;;10.88;7.25;;;;;;;4.43;100.00;100244.41;6165541;23;20453;-73
2023/03/30 03:21:06;;;;;;;12.63;7.90;;;;;;;4.50;100.00;100243.75;6241736;23;20022;-74
2023/03/30 03:23:34;;;;;;;11.90;7.25;;;;;;;4.51;100.00;100241.91;6241866;23;20044;-73
2023/03/30 03:26:02;;;;;;;13.40;7.43;;;;;;;4.57;100.00;100233.41;6242136;23;20170;-72
2023/03/30 03:28:29;;;;;;;13.82;6.70;;;;;;;4.61;100.00;100223.38;6241204;22;20043;-74
2023/03/30 03:30:57;;;;;;;15.65;7.68;;;;;;;4.62;100.00;100220.56;6242283;23;20095;-73
2023/03/30 03:33:24;;;;;;;14.77;7.32;;;;;;;4.44;100.00;100238.09;6240711;23;20082;-73
2023/03/30 03:35:52;;;;;;;19.48;7.55;;;;;;;4.51;100.00;100223.31;6240824;23;20024;-74
2023/03/30 03:38:23;;;;;;;11.80;7.47;;;;;;;4.61;100.00;100218.88;6241078;23;20465;-74
2023/03/30 03:40:51;;;;;;;14.63;8.00;;;;;;;4.61;100.00;100205.59;6241223;23;20051;-74
2023/03/30 03:43:18;;;;;;;9.90;6.85;;;;;;;4.69;100.00;100203.09;6240658;23;20103;-71
2023/03/30 03:45:45;;;;;;;11.32;7.05;;;;;;;4.68;100.00;100209.41;6240943;23;20040;-70
2023/03/30 03:48:13;;;;;;;14.25;7.07;;;;;;;4.76;100.00;100201.63;6241166;23;20031;-71
2023/03/30 03:50:40;;;;;;;12.43;6.93;;;;;;;4.67;100.00;100194.44;6241192;23;20020;-70
2023/03/30 03:53:08;;;;;;;8.77;7.00;;;;;;;4.71;100.00;100198.50;6241225;23;20035;-70
2023/03/30 03:55:35;;;;;;;14.80;7.40;;;;;;;4.80;100.00;100181.75;6239700;23;20016;-71
2023/03/30 03:58:06;;;;;;;13.40;7.68;;;;;;;4.77;100.00;100182.03;6241211;23;20044;-71
2023/03/30 04:00:33;;;;;;;13.30;7.93;;;;;;;4.75;100.00;100181.31;6241399;23;20028;-71
2023/03/30 04:03:00;;;;;;;15.18;7.65;;;;;;;4.68;100.00;100177.53;6240376;23;20246;-69
2023/03/30 04:05:26;;;;;;;12.73;8.23;;;;;;;4.72;100.00;100176.28;6233125;23;20099;-71
2023/03/30 04:07:55;;;;;;;14.35;8.20;;;;;;;4.58;100.00;100160.72;6239645;23;20063;-71
2023/03/30 04:10:22;;;;;;;17.02;9.05;;;;;;;4.65;100.00;100158.34;6241046;23;20024;-69
2023/03/30 04:12:49;;;;;;;14.35;8.85;;;;;;;4.60;100.00;100150.81;6239932;23;20020;-69
2023/03/30 04:15:15;;;;;;;17.65;9.25;;;;;;;4.63;100.00;100150.53;6236083;23;20051;-71
2023/03/30 04:17:43;;;;;;;16.00;9.27;;;;;;;4.49;100.00;100157.06;6240966;23;20106;-71
2023/03/30 04:20:12;;;;;;;11.33;6.60;;;;;;;4.58;100.00;100150.91;6240655;23;20024;-71
2023/03/30 04:22:41;;;;;;;14.68;9.05;;;;;;;4.55;100.00;100148.53;6239931;23;20046;-70
2023/03/30 04:25:10;;;;;;;14.95;8.93;;;;;;;4.54;100.00;100143.38;6239791;23;20028;-70
2023/03/30 04:27:37;;;;;;;17.33;9.82;;;;;;;4.46;100.00;100149.34;6239880;23;20028;-70
2023/03/30 04:30:04;;;;;;;15.85;8.75;;;;;;;4.46;100.00;100152.00;6215341;23;20028;-70
2023/03/30 04:32:33;;;;;;;13.57;8.38;;;;;;;4.52;100.00;100145.31;6239298;23;20012;-71
2023/03/30 04:35:00;;;;;;;18.45;8.65;;;;;;;4.49;100.00;100141.13;6240859;23;20027;-69
2023/03/30 04:37:30;;;;;;;17.60;9.20;;;;;;;4.51;100.00;100138.31;6241042;23;20020;-71
2023/03/30 04:40:05;;;;;;;14.80;9.20;;;;;;;4.39;100.00;100140.25;6241760;23;20404;-71
2023/03/30 04:42:36;;;;;;;19.70;9.75;;;;;;;4.36;100.00;100135.16;6241814;23;20457;-71
2023/03/30 04:45:04;;;;;;;15.35;8.90;;;;;;;4.49;100.00;100130.50;6241952;23;20016;-70
2023/03/30 04:47:31;;;;;;;18.90;9.15;;;;;;;4.48;100.00;100127.97;6241504;23;20479;-71
2023/03/30 04:49:58;;;;;;;14.13;8.70;;;;;;;4.55;100.00;100127.28;6241294;23;20181;-71
2023/03/30 04:52:24;;;;;;;20.77;9.70;;;;;;;4.44;100.00;100130.06;6240884;23;20028;-71
2023/03/30 04:54:51;;;;;;;17.52;9.40;;;;;;;4.38;100.00;100138.53;6239382;23;20020;-71
2023/03/30 04:57:17;;;;;;;18.17;9.13;;;;;;;4.34;100.00;100139.75;6238296;23;20042;-71
2023/03/30 04:59:44;;;;;;;17.60;9.05;;;;;;;4.40;100.00;100130.47;6239948;23;20361;-71
2023/03/30 05:02:11;;;;;;;18.05;9.40;;;;;;;4.46;100.00;100132.59;6213076;23;20036;-72
2023/03/30 05:04:38;;;;;;;16.17;9.27;;;;;;;4.42;100.00;100123.22;6228773;23;20031;-71
2023/03/30 05:07:06;;;;;;;22.02;9.63;;;;;;;4.47;100.00;100128.94;6240761;23;20099;-71
2023/03/30 05:09:33;;;;;;;20.05;10.18;;;;;;;4.39;100.00;100120.81;6240865;23;20017;-71
2023/03/30 05:12:00;;;;;;;19.27;9.68;;;;;;;4.44;100.00;100108.81;6240440;23;20022;-70
2023/03/30 05:14:26;;;;;;;15.70;9.45;;;;;;;4.49;100.00;100103.94;6199805;23;20051;-71
2023/03/30 05:16:52;;;;;;;17.80;10.45;;;;;;;4.60;100.00;100084.38;6240811;23;20027;-71
2023/03/30 05:19:19;;;;;;;14.50;9.05;;;;;;;4.61;100.00;100075.44;6239209;23;20028;-70
2023/03/30 05:21:46;;;;;;;15.77;9.75;;;;;;;4.58;100.00;100073.03;6234627;23;20039;-72
2023/03/30 05:24:12;;;;;;;14.27;8.85;;;;;;;4.56;100.00;100061.72;6240502;23;20043;-72
2023/03/30 05:26:39;;;;;;;17.08;9.50;;;;;;;4.50;100.00;100064.94;6241416;23;20020;-72
2023/03/30 05:29:06;;;;;;;14.68;8.98;;;;;;;4.52;100.00;100061.16;6240877;22;20020;-72
2023/03/30 05:31:32;;;;;;;18.42;8.93;;;;;;;4.48;100.00;100065.06;6240303;23;20040;-72
2023/03/30 05:33:59;;;;;;;15.98;8.75;;;;;;;4.61;100.00;100072.78;6240296;23;20026;-72
2023/03/30 05:36:25;;;;;;;13.13;8.88;;;;;;;4.49;100.00;100076.53;6241292;23;20030;-72
2023/03/30 05:38:52;;;;;;;16.45;8.35;;;;;;;4.61;100.00;100078.09;6241713;23;20020;-72
2023/03/30 05:41:18;;;;;;;16.30;8.32;;;;;;;4.59;100.00;100077.41;6234654;23;20020;-71
2023/03/30 05:43:46;;;;;;;12.73;8.48;;;;;;;4.70;100.00;100081.75;6243596;23;20027;-71
2023/03/30 05:46:12;;;;;;;21.30;7.70;;;;;;;4.74;100.00;100069.88;6243018;23;20024;-71
2023/03/30 05:48:39;;;;;;;20.15;7.93;;;;;;;4.59;100.00;100066.78;6244159;23;20115;-71
2023/03/30 05:51:06;;;;;;;17.48;8.18;;;;;;;4.58;100.00;100065.06;6242231;23;20030;-71
2023/03/30 05:53:33;;;;;;;14.80;8.60;;;;;;;4.63;100.00;100070.81;6237583;23;20024;-71
2023/03/30 05:56:00;;;;;;;18.58;8.18;;;;;;;4.64;100.00;100072.50;6241857;23;20016;-71
2023/03/30 05:58:27;;;;;;;17.92;8.70;;;;;;;4.88;100.00;100071.28;6243149;23;20453;-71
2023/03/30 06:00:56;;;;;;;16.02;7.78;;;;;;;4.70;100.00;100066.63;6242343;23;20447;-71
2023/03/30 06:03:23;;;;;;;18.35;8.68;;;;;;;4.65;100.00;100054.75;6240988;23;20107;-71
2023/03/30 06:05:52;;;;;;;14.52;8.18;;;;;;;4.61;100.00;100050.69;6241556;23;20031;-71
2023/03/30 06:08:19;;;;;;;18.67;8.95;;;;;;;4.61;100.00;100040.88;6242486;23;20024;-71
2023/03/30 06:10:52;;;;;;;16.40;8.38;;;;;;;4.70;100.00;100048.03;6241596;23;20043;-71
2023/03/30 06:13:19;;;;;;;18.55;8.00;;;;;;;4.68;100.00;100042.00;6241232;23;20030;-71
2023/03/30 06:15:46;;;;;;;22.73;8.75;;;;;;;4.81;100.00;100045.25;6241420;23;20465;-71
2023/03/30 06:18:12;;;;;;;12.57;7.40;;;;;;;4.86;100.00;100039.50;6242369;23;20028;-71
2023/03/30 06:20:39;;;;;;;12.70;7.45;;;;;;;4.93;100.00;100042.44;6242879;23;20096;-71
2023/03/30 06:23:06;;;;;;;12.60;7.70;;;;;;;4.87;100.00;100035.88;6242248;23;20099;-71
2023/03/30 06:25:32;;;;;;;15.85;8.30;;;;;;;4.89;100.00;100019.78;6241149;23;20111;-71
2023/03/30 06:27:59;;;;;;;16.80;7.72;;;;;;;4.93;100.00;100021.16;6241752;22;20059;-71
2023/03/30 06:30:25;;;;;;;11.98;7.05;;;;;;;5.04;100.00;100021.03;6240589;23;20024;-71
2023/03/30 06:32:52;;;;;;;15.10;8.20;;;;;;;5.11;100.00;100021.28;6242300;23;20020;-71
2023/03/30 06:35:19;;;;;;;9.75;7.05;;;;;;;5.19;100.00;100029.41;6240793;23;20072;-71
2023/03/30 06:37:46;;;;;;;14.32;7.40;;;;;;;5.22;100.00;100015.84;6241232;23;20390;-71
2023/03/30 06:40:12;;;;;;;14.05;7.18;;;;;;;5.28;100.00;100020.56;6243319;23;20024;-71
2023/03/30 06:42:40;;;;;;;13.07;7.05;;;;;;;5.25;100.00;100029.69;6241610;23;20036;-71
2023/03/30 06:45:08;;;;;;;11.68;6.35;;;;;;;5.35;100.00;100028.81;6241046;23;20038;-71
2023/03/30 06:47:35;;;;;;;17.13;6.90;;;;;;;5.31;100.00;100022.09;6241674;23;20397;-71
2023/03/30 06:50:02;;;;;;;13.40;7.35;;;;;;;5.38;100.00;100016.06;6241230;23;20020;-71
2023/03/30 06:52:32;;;;;;;16.25;6.68;;;;;;;5.43;100.00;100019.16;6239799;23;20094;-71
2023/03/30 06:54:59;;;;;;;11.63;6.40;;;;;;;5.46;100.00;100018.03;6241624;23;20394;-71
2023/03/30 06:57:25;;;;;;;10.95;6.68;;;;;;;5.58;100.00;100010.69;6242003;23;20043;-71
2023/03/30 06:59:52;;;;;;;14.43;7.47;;;;;;;5.70;100.00;100004.22;6241636;23;20047;-71
2023/03/30 07:02:19;;;;;;;11.65;6.88;;;;;;;5.70;100.00;100010.38;6241446;23;20050;-71
2023/03/30 07:04:46;;;;;;;10.02;7.03;;;;;;;5.53;100.00;100005.81;6241927;23;20099;-71
2023/03/30 07:07:13;;;;;;;17.30;7.55;;;;;;;5.59;100.00;100007.88;6242553;23;20043;-71
2023/03/30 07:09:39;;;;;;;12.95;7.32;;;;;;;5.70;100.00;99990.91;6241859;23;20374;-71
2023/03/30 07:12:06;;;;;;;12.95;6.47;;;;;;;6.08;100.00;99986.34;6241946;23;20032;-71
2023/03/30 07:14:32;;;;;;;14.80;7.38;;;;;;;6.26;100.00;99973.97;6241227;23;20020;-71
2023/03/30 07:16:59;;;;;;;16.25;8.45;;;;;;;7.08;100.00;99977.31;6241105;23;20020;-71
2023/03/30 07:19:26;;;;;;;14.82;7.15;;;;;;;7.58;100.00;99982.81;6206100;23;20488;-71
2023/03/30 07:21:52;;;;;;;12.30;6.03;;;;;;;7.48;100.00;99987.44;6235983;23;20396;-71
2023/03/30 07:24:19;;;;;;;14.77;7.55;;;;;;;7.83;100.00;99985.59;6239549;23;20027;-71
2023/03/30 07:26:45;;;;;;;13.02;7.28;;;;;;;8.33;100.00;99971.44;6240814;23;20012;-71
2023/03/30 07:29:14;;;;;;;13.65;6.53;;;;;;;8.98;100.00;99974.16;6242672;22;20024;-71
2023/03/30 07:31:40;;;;;;;11.88;6.38;;;;;;;9.45;100.00;99959.25;6242313;23;20381;-71
2023/03/30 07:34:08;;;;;;;27.73;6.30;;;;;;;8.97;100.00;99953.75;6241153;23;20031;-72
2023/03/30 07:36:34;;;;;;;8.55;5.63;;;;;;;8.92;100.00;99961.47;6241639;23;20019;-72
2023/03/30 07:39:01;;;;;;;12.27;5.35;;;;;;;9.21;100.00;99952.06;6240719;23;20364;-72
2023/03/30 07:41:27;;;;;;;12.18;5.72;;;;;;;9.13;100.00;99958.28;6239521;23;20024;-72
2023/03/30 07:43:54;;;;;;;10.65;5.70;;;;;;;9.51;100.00;99961.25;6240685;23;20519;-73
2023/03/30 07:46:20;;;;;;;11.93;5.70;;;;;;;10.08;100.00;99955.63;6240941;23;20026;-73
2023/03/30 07:48:47;;;;;;;10.27;5.50;;;;;;;9.78;100.00;99942.03;6241148;23;20031;-73
2023/03/30 07:51:14;;;;;;;9.85;4.70;;;;;;;10.57;100.00;99941.09;6238986;23;20108;-72
2023/03/30 07:53:41;;;;;;;11.20;5.13;;;;;;;10.64;100.00;99942.06;6239679;23;20078;-72
2023/03/30 07:56:09;;;;;;;12.85;4.95;;;;;;;10.92;100.00;99942.31;6241188;23;20074;-72
2023/03/30 07:58:36;;;;;;;15.80;5.05;;;;;;;11.25;100.00;99940.16;6240500;23;20024;-72
2023/03/30 08:01:03;;;;;;;11.63;4.65;;;;;;;11.66;100.00;99956.69;6241052;23;20031;-72
2023/03/30 08:03:31;;;;;;;10.82;4.70;;;;;;;11.70;100.00;99954.47;6240405;23;20023;-72
2023/03/30 08:06:02;;;;;;;9.00;4.38;;;;;;;11.58;100.00;99951.38;6241533;22;20016;-72
2023/03/30 08:08:30;;;;;;;12.48;4.55;;;;;;;11.53;100.00;99940.34;6241645;23;20099;-72
2023/03/30 08:10:57;;;;;;;14.50;4.35;;;;;;;12.53;100.00;99949.66;6240186;23;20024;-72
2023/03/30 08:13:24;;;;;;;11.85;3.80;;;;;;;12.80;99.85;99948.03;6240566;23;20445;-72
2023/03/30 08:15:53;;;;;;;9.07;3.67;;;;;;;13.06;97.87;99933.97;6242021;23;20047;-73
2023/03/30 08:18:19;;;;;;;7.22;3.30;;;;;;;13.46;89.20;99939.66;6240856;23;20074;-72
2023/03/30 08:20:50;;;;;;;14.48;3.60;;;;;;;13.97;84.33;99937.41;6240715;23;20103;-72
2023/03/30 08:23:17;;;;;;;17.40;3.70;;;;;;;13.92;82.31;99933.69;6240822;23;20031;-70
2023/03/30 08:25:45;;;;;;;8.73;3.17;;;;;;;14.14;78.19;99932.50;6242085;23;20458;-70
2023/03/30 08:28:12;;;;;;;11.50;3.55;;;;;;;13.53;81.27;99927.88;6241115;22;20027;-70
2023/03/30 08:30:39;;;;;;;10.88;4.50;;;;;;;13.53;82.84;99918.97;6241391;23;20123;-70
2023/03/30 08:33:07;;;;;;;11.80;3.60;;;;;;;13.90;80.92;99912.28;6240058;23;21576;-71
2023/03/30 08:35:34;;;;;;;9.45;5.13;;;;;;;13.77;80.69;99914.97;6240482;23;20055;-71
2023/03/30 08:38:01;;;;;;;9.43;3.35;;;;;;;13.58;83.14;99911.09;6240107;23;20353;-71
2023/03/30 08:40:28;;;;;;;8.50;3.10;;;;;;;13.40;83.63;99913.50;6240752;23;20418;-71
2023/03/30 08:43:05;;;;;;;7.80;3.08;;;;;;;13.24;84.64;99909.25;6241574;23;20031;-72
2023/03/30 08:45:38;;;;;;;12.95;2.72;;;;;;;12.81;88.67;99926.34;6240385;23;20016;-71
2023/03/30 08:48:19;;;;;;;7.63;2.63;;;;;;;13.22;84.66;99916.69;6241179;23;20381;-71
2023/03/30 08:50:54;;;;;;;12.50;4.18;;;;;;;12.41;92.59;99915.16;6239787;22;20356;-71
2023/03/30 08:53:21;;;;;;;11.02;3.38;;;;;;;11.95;99.50;99897.72;6240758;23;20020;-72
2023/03/30 08:55:57;;;;;;;18.17;3.40;;;;;;;12.22;100.00;99902.34;6240899;23;20344;-72
2023/03/30 08:58:39;;;;;;;22.27;3.92;;;;;;;12.09;100.00;99910.28;6231250;23;20096;-72
2023/03/30 09:01:33;;;;;;;8.90;3.17;;;;;;;12.41;100.00;99904.41;6240975;23;20030;-71
2023/03/30 09:04:26;;;;;;;9.85;3.30;;;;;;;12.16;100.00;99895.88;6228991;23;20425;-72
2023/03/30 09:06:56;;;;;;;10.73;2.95;;;;;;;12.20;100.00;99907.09;6239771;23;20083;-72
2023/03/30 09:09:28;;;;;;;15.85;3.38;;;;;;;12.08;100.00;99903.25;6240853;23;20346;-72
2023/03/30 09:12:16;;;;;;;23.77;5.03;;;;;;;11.90;100.00;99909.03;6240689;23;20024;-72
2023/03/30 09:14:54;;;;;;;19.10;3.80;;;;;;;11.56;100.00;99905.06;6241762;23;20031;-72
2023/03/30 09:17:32;;;;;;;14.30;3.15;;;;;;;11.67;100.00;99909.16;6239105;23;20020;-71
2023/03/30 09:20:12;;;;;;;13.18;3.05;;;;;;;11.76;100.00;99896.44;6241070;23;20020;-71
2023/03/30 09:22:41;;;;;;;10.43;3.13;;;;;;;11.39;100.00;99896.38;6241182;23;20107;-71
2023/03/30 09:25:15;;;;;;;7.55;2.58;;;;;;;11.46;100.00;99888.41;6240971;23;20024;-72
2023/03/30 09:28:00;;;;;;;10.15;2.72;;;;;;;11.57;100.00;99895.16;6234065;22;20027;-75
2023/03/30 09:30:35;;;;;;;10.60;2.55;;;;;;;11.83;100.00;99895.53;6240045;23;20039;-71
2023/03/30 09:33:16;;;;;;;9.50;3.17;;;;;;;11.75;100.00;99898.31;6240488;23;20099;-71
2023/03/30 09:36:23;;;;;;;14.27;4.22;;;;;;;11.71;100.00;99897.00;6242167;23;20020;-71
2023/03/30 09:38:51;;;;;;;17.15;3.17;;;;;;;11.41;100.00;99902.41;6208041;23;20323;-71
2023/03/30 09:41:34;;;;;;;13.38;2.65;;;;;;;11.39;100.00;99906.28;6207876;23;20055;-72
2023/03/30 09:44:04;;;;;;;13.32;2.92;;;;;;;11.41;100.00;99902.41;6210132;23;20036;-71
2023/03/30 09:46:32;;;;;;;16.75;3.05;;;;;;;11.19;100.00;99908.69;6207695;23;20020;-71
2023/03/30 09:49:15;;;;;;;20.15;3.65;;;;;;;11.38;100.00;99913.50;6208341;23;20027;-71
2023/03/30 09:52:06;;;;;;;13.95;3.22;;;;;;;11.19;100.00;99904.13;6183963;23;20091;-71
2023/03/30 09:54:37;;;;;;;13.15;3.15;;;;;;;11.28;100.00;99902.22;6208805;23;20025;-71
2023/03/30 09:57:20;;;;;;;15.13;3.63;;;;;;;11.26;100.00;99900.72;6208983;23;20027;-71
2023/03/30 09:59:46;;;;;;;;;;;;;;;11.09;100.00;99908.09;6208183;23;20059;-71
2023/03/30 10:02:15;;;;;;;13.55;3.25;;;;;;;11.10;100.00;99905.25;6208727;23;19988;-71
2023/03/30 10:04:51;;;;;;;9.55;3.08;;;;;;;11.17;100.00;99900.81;6206886;23;20326;-71
2023/03/30 10:07:23;;;;;;;7.72;3.15;;;;;;;11.06;100.00;99903.09;6207679;23;20028;-72
2023/03/30 10:09:50;;;;;;;11.48;3.28;;;;;;;11.11;100.00;99908.78;6208390;23;20095;-71
2023/03/30 10:12:17;;;;;;;15.93;3.55;;;;;;;11.06;100.00;99921.88;6216264;23;20441;-72
2023/03/30 10:14:44;;;;;;;12.52;3.58;;;;;;;11.04;100.00;99915.91;6242398;23;20016;-71
2023/03/30 10:17:23;;;;;;;8.77;2.83;;;;;;;10.95;100.00;99910.59;6240479;22;20027;-71
2023/03/30 10:20:14;;;;;;;26.15;3.10;;;;;;;10.99;100.00;99903.84;6234505;23;20091;-71
2023/03/30 10:22:50;;;;;;;27.02;3.40;;;;;;;10.84;100.00;99905.66;6240299;23;20016;-71
2023/03/30 10:25:20;;;;;;;20.25;3.65;;;;;;;10.98;100.00;99918.28;6240067;22;20024;-71
2023/03/30 10:27:49;;;;;;;12.63;2.65;;;;;;;11.03;100.00;99915.03;6240822;22;20457;-71
2023/03/30 10:30:23;;;;;;;18.52;3.40;;;;;;;11.05;100.00;99922.91;6241328;23;20119;-71
2023/03/30 10:32:51;;;;;;;19.67;3.05;;;;;;;11.09;100.00;99914.31;6242852;23;20445;-72
2023/03/30 10:35:22;;;;;;;14.82;3.40;;;;;;;11.07;100.00;99908.31;6228844;23;20016;-72
2023/03/30 10:37:52;;;;;;;14.13;2.78;;;;;;;11.10;100.00;99912.44;6242565;23;20494;-72
2023/03/30 10:40:25;;;;;;;12.88;3.10;;;;;;;11.19;100.00;99914.03;6242881;23;20024;-72
2023/03/30 10:42:56;;;;;;;13.98;3.35;;;;;;;11.41;100.00;99896.16;6220156;22;20094;-72
2023/03/30 10:45:31;;;;;;;11.93;3.33;;;;;;;11.38;100.00;99902.78;6242422;23;20043;-72
2023/03/30 10:48:04;;;;;;;15.23;3.08;;;;;;;11.66;100.00;99891.38;6242355;23;20024;-72
2023/03/30 10:50:51;;;;;;;13.75;3.00;;;;;;;11.54;100.00;99896.34;6242051;23;20047;-72
2023/03/30 10:53:29;;;;;;;15.57;2.92;;;;;;;11.82;100.00;99887.63;6241877;23;20045;-72
2023/03/30 10:56:08;;;;;;;15.35;3.60;;;;;;;12.35;100.00;99894.44;6242296;22;20456;-72
2023/03/30 10:58:47;;;;;;;12.25;3.20;;;;;;;12.62;100.00;99895.47;6241460;23;20020;-71
2023/03/30 11:01:58;;;;;;;22.67;4.55;;;;;;;12.39;100.00;99898.41;6242073;23;20051;-71
2023/03/30 11:04:29;;;;;;;18.20;3.47;;;;;;;12.35;100.00;99893.59;6183126;22;20072;-72
2023/03/30 11:06:58;;;;;;;17.98;3.33;;;;;;;12.12;100.00;99886.53;6241612;23;20019;-72
2023/03/30 11:09:33;;;;;;;12.32;3.30;;;;;;;12.14;100.00;99883.63;6240893;23;20464;-72
2023/03/30 11:12:19;;;;;;;20.63;3.38;;;;;;;11.78;100.00;99881.81;6240720;23;20036;-72
2023/03/30 11:14:50;;;;;;;11.55;3.08;;;;;;;12.07;100.00;99885.44;6238967;23;20020;-71
2023/03/30 11:17:22;;;;;;;15.57;3.35;;;;;;;12.02;100.00;99877.13;6239101;23;20340;-71
2023/03/30 11:19:55;;;;;;;19.98;3.05;;;;;;;12.34;100.00;99878.47;6240695;23;20090;-72
2023/03/30 11:22:34;;;;;;;19.50;3.03;;;;;;;12.84;100.00;99884.75;6241432;23;20520;-75
2023/03/30 11:25:08;;;;;;;15.05;2.70;;;;;;;12.72;100.00;99875.50;6241322;23;20020;-75
2023/03/30 11:27:59;;;;;;;18.17;3.00;;;;;;;12.83;100.00;99875.84;6242609;23;20515;-75
2023/03/30 11:30:32;;;;;;;11.82;3.10;;;;;;;12.59;100.00;99887.81;6241337;23;20028;-75
2023/03/30 11:33:08;;;;;;;8.27;2.67;;;;;;;12.57;100.00;99878.28;6241312;23;20053;-75
2023/03/30 11:35:45;;;;;;;19.70;3.00;;;;;;;12.88;100.00;99877.94;6241344;23;20034;-75
2023/03/30 11:38:28;;;;;;;13.20;3.05;;;;;;;13.18;100.00;99864.22;6240656;23;20380;-74
2023/03/30 11:41:00;;;;;;;14.93;3.75;;;;;;;12.83;100.00;99861.53;6239116;23;20028;-74
2023/03/30 11:43:30;;;;;;;15.80;3.22;;;;;;;13.11;100.00;99858.81;6238949;23;20026;-74